Time;durP1;ratioP1;P1;durP2;ratioP2;P2;SDS_P1;SDS_P2;PMS_P1;PMS_P2;Temp;Humidity;BMP_temperature;BMP_pressure;BME280_temperature;BME280_humidity;BME280_pressure;Samples;Min_cycle;Max_cycle;Signal;HPM_P1;HPM_P2
2023/02/02 00:01:54;;;;;;;17.55;4.38;;;;;;;9.23;100.00;102074.16;5295789;28;20032;-77
2023/02/02 00:04:31;;;;;;;16.77;3.97;;;;;;;9.24;100.00;102079.31;5295430;28;20450;-76
2023/02/02 00:07:06;;;;;;;17.73;4.35;;;;;;;9.18;100.00;102066.59;5295980;28;20032;-77
2023/02/02 00:09:37;;;;;;;17.02;4.43;;;;;;;9.19;100.00;102070.06;5296028;28;20024;-74
2023/02/02 00:12:09;;;;;;;14.57;3.97;;;;;;;9.24;100.00;102070.59;5296189;28;20036;-74
2023/02/02 00:14:40;;;;;;;17.70;3.78;;;;;;;9.19;100.00;102056.97;5293649;28;20262;-76
2023/02/02 00:17:11;;;;;;;12.90;3.10;;;;;;;9.26;100.00;102066.97;5294266;28;20032;-76
2023/02/02 00:19:42;;;;;;;15.60;3.53;;;;;;;9.25;100.00;102062.69;5274322;28;20101;-75
2023/02/02 00:22:14;;;;;;;16.08;3.05;;;;;;;9.26;100.00;102059.13;5296550;28;20055;-75
2023/02/02 00:24:45;;;;;;;16.20;4.05;;;;;;;9.27;100.00;102066.03;5297552;28;20085;-77
2023/02/02 00:27:17;;;;;;;16.23;4.03;;;;;;;9.31;100.00;102069.31;5296294;28;20486;-75
2023/02/02 00:29:52;;;;;;;13.10;3.25;;;;;;;9.33;100.00;102067.47;5295038;28;20082;-75
2023/02/02 00:32:23;;;;;;;14.57;4.22;;;;;;;9.32;100.00;102068.41;5297540;28;20466;-76
2023/02/02 00:34:54;;;;;;;18.33;3.30;;;;;;;9.37;100.00;102079.41;5296727;28;20084;-74
2023/02/02 00:37:26;;;;;;;18.35;4.22;;;;;;;9.35;100.00;102073.44;5296606;28;20027;-76
2023/02/02 00:39:57;;;;;;;10.88;2.90;;;;;;;9.34;100.00;102074.38;5295618;28;20028;-74
2023/02/02 00:42:28;;;;;;;13.80;3.25;;;;;;;9.38;100.00;102075.03;5297730;28;20111;-75
2023/02/02 00:45:16;;;;;;;14.88;3.65;;;;;;;9.42;100.00;102081.75;5279201;28;20031;-76
2023/02/02 00:47:48;;;;;;;20.67;4.18;;;;;;;9.32;100.00;102076.25;5302806;28;20058;-75
2023/02/02 00:50:20;;;;;;;17.73;3.42;;;;;;;9.33;100.00;102082.31;5289926;28;20035;-76
2023/02/02 00:52:52;;;;;;;14.50;3.33;;;;;;;9.37;100.00;102084.66;5302553;28;20025;-75
2023/02/02 00:55:24;;;;;;;15.38;3.25;;;;;;;9.33;100.00;102082.31;5296917;28;20450;-75
2023/02/02 00:57:55;;;;;;;14.57;4.13;;;;;;;9.33;100.00;102083.16;5297311;28;20024;-77
2023/02/02 01:00:27;;;;;;;16.63;4.20;;;;;;;9.26;100.00;102072.22;5295947;28;20028;-76
2023/02/02 01:03:03;;;;;;;13.57;3.47;;;;;;;9.31;100.00;102074.53;5293475;28;20020;-76
2023/02/02 01:05:35;;;;;;;15.43;3.92;;;;;;;9.29;100.00;102086.06;5296199;28;20042;-74
2023/02/02 01:08:06;;;;;;;15.57;2.88;;;;;;;9.28;100.00;102087.84;5297107;28;20396;-75
2023/02/02 01:10:38;;;;;;;16.58;4.13;;;;;;;9.27;100.00;102086.13;5299192;28;20448;-77
2023/02/02 01:13:09;;;;;;;15.13;3.42;;;;;;;9.22;100.00;102083.78;5300028;28;20031;-76
2023/02/02 01:15:40;;;;;;;14.25;3.20;;;;;;;9.30;100.00;102088.56;5299573;28;20019;-76
2023/02/02 01:18:11;;;;;;;16.17;3.40;;;;;;;9.31;100.00;102085.00;5298982;28;20493;-77
2023/02/02 01:20:43;;;;;;;16.88;3.78;;;;;;;9.34;100.00;102092.69;5299643;28;20486;-75
2023/02/02 01:23:14;;;;;;;16.17;3.85;;;;;;;9.35;100.00;102085.66;5300153;28;20477;-77
2023/02/02 01:25:52;;;;;;;13.52;3.42;;;;;;;9.42;100.00;102076.53;5299484;28;20030;-74
2023/02/02 01:28:24;;;;;;;16.08;3.42;;;;;;;9.34;100.00;102074.38;5298833;28;20533;-77
2023/02/02 01:30:56;;;;;;;18.38;3.92;;;;;;;9.38;100.00;102078.47;5299381;28;20040;-75
2023/02/02 01:33:27;;;;;;;15.10;3.75;;;;;;;9.34;100.00;102081.38;5298930;28;20435;-77
2023/02/02 01:36:04;;;;;;;15.15;4.10;;;;;;;9.49;100.00;102090.91;5297201;28;20028;-77
2023/02/02 01:38:36;;;;;;;17.75;3.28;;;;;;;9.34;100.00;102084.00;5299152;28;20032;-77
2023/02/02 01:41:10;;;;;;;17.38;4.43;;;;;;;9.36;100.00;102082.97;5297593;28;20432;-75
2023/02/02 01:43:42;;;;;;;18.00;4.60;;;;;;;9.40;100.00;102096.72;5278846;28;20497;-76
2023/02/02 01:46:18;;;;;;;24.45;3.38;;;;;;;9.43;100.00;102086.91;5297468;28;20035;-77
2023/02/02 01:49:00;;;;;;;16.77;3.75;;;;;;;9.47;100.00;102085.78;5298465;28;20028;-77
2023/02/02 01:51:49;;;;;;;19.98;3.90;;;;;;;9.52;100.00;102084.66;5297102;28;20031;-76
2023/02/02 01:54:26;;;;;;;14.65;3.50;;;;;;;9.48;100.00;102087.47;5297757;28;20393;-77
2023/02/02 01:57:04;;;;;;;17.00;4.18;;;;;;;9.40;100.00;102084.47;5296576;28;20058;-77
2023/02/02 01:59:36;;;;;;;13.60;3.53;;;;;;;9.35;100.00;102080.44;5296057;28;20504;-77
2023/02/02 02:02:07;;;;;;;17.95;4.05;;;;;;;9.33;100.00;102083.16;5297584;28;20032;-76
2023/02/02 02:04:41;;;;;;;17.00;3.42;;;;;;;9.35;100.00;102081.28;5295751;28;20066;-73
2023/02/02 02:07:12;;;;;;;;;;;;;;;9.92;100.00;102083.88;5297631;28;20413;-77
2023/02/02 02:09:43;;;;;;;15.77;3.40;;;;;;;9.35;100.00;102083.06;5279421;28;20341;-76
2023/02/02 02:12:15;;;;;;;11.90;3.47;;;;;;;9.35;100.00;102081.28;5297192;28;20370;-76
2023/02/02 02:18:09;;;;;;;19.83;3.65;;;;;;;9.48;100.00;102076.16;5297115;28;20028;-76
2023/02/02 02:27:13;;;;;;;17.05;3.80;;;;;;;9.48;100.00;102087.47;5296922;28;20032;-74
2023/02/02 02:30:04;;;;;;;14.25;3.30;;;;;;;9.45;100.00;102084.19;5299159;28;20062;-77
2023/02/02 02:32:38;;;;;;;16.45;3.72;;;;;;;9.21;100.00;102070.81;5299123;28;20180;-78
2023/02/02 02:35:40;;;;;;;15.85;3.95;;;;;;;9.35;100.00;102078.66;5297834;28;20070;-75
2023/02/02 02:38:35;;;;;;;13.85;3.20;;;;;;;9.43;100.00;102079.06;5298302;28;20036;-77
2023/02/02 02:41:12;;;;;;;18.85;4.07;;;;;;;9.26;100.00;102081.84;5298312;28;20056;-75
2023/02/02 02:43:54;;;;;;;13.68;4.00;;;;;;;9.33;100.00;102096.22;5280711;28;20043;-75
2023/02/02 02:46:26;;;;;;;15.95;3.50;;;;;;;9.19;100.00;102083.13;5298854;28;20461;-74
2023/02/02 02:48:59;;;;;;;15.23;3.70;;;;;;;9.25;100.00;102090.63;5296865;28;20027;-76
2023/02/02 02:51:46;;;;;;;13.93;3.83;;;;;;;9.34;100.00;102097.91;5297333;28;20406;-74
2023/02/02 02:54:28;;;;;;;18.60;4.38;;;;;;;9.34;100.00;102091.84;5299145;28;20093;-78
2023/02/02 02:57:11;;;;;;;15.98;4.15;;;;;;;9.27;100.00;102101.81;5299069;28;20042;-76
2023/02/02 03:00:00;;;;;;;15.07;3.58;;;;;;;9.23;100.00;102101.16;5297923;28;20031;-75
2023/02/02 03:02:56;;;;;;;14.45;3.70;;;;;;;9.43;100.00;102100.00;5285031;28;20055;-74
2023/02/02 03:05:30;;;;;;;21.83;4.18;;;;;;;9.22;100.00;102093.41;5303305;28;20239;-75
2023/02/02 03:08:15;;;;;;;14.55;3.72;;;;;;;9.21;100.00;102083.88;5306591;28;20027;-74
2023/02/02 03:10:47;;;;;;;18.00;3.38;;;;;;;9.17;100.00;102091.06;5272822;28;20024;-78
2023/02/02 03:13:18;;;;;;;16.25;3.75;;;;;;;9.18;100.00;102087.53;5299379;28;20024;-78
2023/02/02 03:15:50;;;;;;;15.98;3.80;;;;;;;9.22;100.00;102093.41;5297429;28;20027;-75
2023/02/02 03:18:26;;;;;;;15.68;3.80;;;;;;;9.20;100.00;102082.19;5296500;28;20036;-74
2023/02/02 03:20:57;;;;;;;19.77;3.97;;;;;;;9.23;100.00;102084.63;5294587;28;20031;-75
2023/02/02 03:23:29;;;;;;;17.70;4.22;;;;;;;9.25;100.00;102096.69;5297273;28;20050;-75
2023/02/02 03:26:00;;;;;;;18.20;5.00;;;;;;;9.27;100.00;102091.34;5298454;28;20032;-75
2023/02/02 03:28:33;;;;;;;21.48;3.97;;;;;;;9.17;100.00;102075.38;5296960;28;20058;-77
2023/02/02 03:31:04;;;;;;;16.75;3.88;;;;;;;9.23;100.00;102080.22;5296324;28;20048;-77
2023/02/02 03:33:36;;;;;;;14.20;4.20;;;;;;;9.14;100.00;102086.03;5297480;28;20036;-76
2023/02/02 03:36:08;;;;;;;13.70;3.42;;;;;;;9.13;100.00;102075.63;5297837;28;20496;-74
2023/02/02 03:38:39;;;;;;;17.70;5.28;;;;;;;9.13;100.00;102080.84;5296583;28;20028;-76
2023/02/02 03:41:11;;;;;;;15.70;3.92;;;;;;;9.11;100.00;102062.66;5296989;28;21147;-76
2023/02/02 03:43:42;;;;;;;16.92;3.60;;;;;;;9.12;100.00;102081.81;5297598;28;20043;-77
2023/02/02 03:46:13;;;;;;;16.52;3.53;;;;;;;9.10;100.00;102084.53;5295893;28;20023;-75
2023/02/02 03:48:45;;;;;;;16.38;3.50;;;;;;;9.10;100.00;102091.53;5297058;28;20080;-77
2023/02/02 03:51:16;;;;;;;16.38;4.35;;;;;;;9.14;100.00;102100.88;5296759;28;20027;-76
2023/02/02 03:53:47;;;;;;;19.40;3.60;;;;;;;9.11;100.00;102098.44;5295279;28;20490;-77
2023/02/02 03:56:19;;;;;;;14.73;3.05;;;;;;;9.12;100.00;102105.34;5296052;28;20119;-77
2023/02/02 03:58:50;;;;;;;13.63;3.45;;;;;;;9.15;100.00;102110.38;5297890;28;20050;-76
2023/02/02 04:01:27;;;;;;;19.92;4.53;;;;;;;9.20;100.00;102113.56;5296863;28;20393;-77
2023/02/02 04:03:59;;;;;;;13.30;3.85;;;;;;;9.12;100.00;102110.56;5296022;28;20016;-76
2023/02/02 04:06:30;;;;;;;12.82;3.17;;;;;;;9.19;100.00;102112.72;5296507;28;20038;-77
2023/02/02 04:09:01;;;;;;;13.70;3.72;;;;;;;9.19;100.00;102112.72;5297930;28;20077;-75
2023/02/02 04:11:33;;;;;;;19.80;3.55;;;;;;;9.22;100.00;102111.72;5278111;28;20558;-75
2023/02/02 04:14:04;;;;;;;20.15;4.45;;;;;;;9.23;100.00;102101.16;5296151;28;20489;-76
2023/02/02 04:16:36;;;;;;;18.50;4.10;;;;;;;9.22;100.00;102106.47;5295920;28;20020;-75
2023/02/02 04:19:08;;;;;;;19.70;3.78;;;;;;;9.16;100.00;102104.22;5295267;28;20031;-75
2023/02/02 04:21:39;;;;;;;14.05;3.22;;;;;;;9.17;100.00;102106.75;5296186;28;20047;-75
2023/02/02 04:24:12;;;;;;;15.85;4.15;;;;;;;9.20;100.00;102109.16;5279902;28;20020;-76
2023/02/02 04:26:44;;;;;;;15.03;3.30;;;;;;;9.19;100.00;102117.94;5277968;28;20436;-75
2023/02/02 04:29:15;;;;;;;15.10;3.45;;;;;;;9.19;100.00;102111.88;5296300;28;20285;-75
2023/02/02 04:31:46;;;;;;;16.52;3.95;;;;;;;9.17;100.00;102119.00;5296690;28;20056;-75
2023/02/02 04:34:18;;;;;;;18.20;4.43;;;;;;;9.19;100.00;102128.41;5296949;28;20127;-76
2023/02/02 04:36:49;;;;;;;15.65;4.55;;;;;;;9.15;100.00;102123.47;5295393;28;20476;-74
2023/02/02 04:39:20;;;;;;;19.42;3.33;;;;;;;9.18;100.00;102123.28;5297028;28;20024;-75
2023/02/02 04:41:52;;;;;;;16.15;3.40;;;;;;;9.14;100.00;102125.22;5276963;28;20164;-75
2023/02/02 04:44:23;;;;;;;16.63;3.92;;;;;;;9.18;100.00;102131.13;5281621;28;20536;-75
2023/02/02 04:46:54;;;;;;;14.63;3.88;;;;;;;9.13;100.00;102107.88;5301336;28;20023;-75
2023/02/02 04:49:26;;;;;;;15.35;3.30;;;;;;;9.18;100.00;102108.44;5301030;28;20028;-75
2023/02/02 04:51:57;;;;;;;16.85;3.70;;;;;;;9.16;100.00;102112.91;5299508;28;20438;-75
2023/02/02 04:54:28;;;;;;;13.52;3.17;;;;;;;9.25;100.00;102111.53;5300247;28;20028;-75
2023/02/02 04:56:59;;;;;;;16.00;4.70;;;;;;;9.19;100.00;102117.94;5301459;28;20118;-75
2023/02/02 04:59:31;;;;;;;13.00;3.25;;;;;;;9.20;100.00;102108.34;5301224;28;20036;-75
2023/02/02 05:02:02;;;;;;;18.33;3.35;;;;;;;9.18;100.00;102107.59;5299509;28;20062;-74
2023/02/02 05:04:33;;;;;;;16.13;3.17;;;;;;;9.17;100.00;102109.38;5282182;28;20032;-75
2023/02/02 05:07:05;;;;;;;15.18;3.35;;;;;;;9.13;100.00;102104.38;5280510;28;20576;-75
2023/02/02 05:09:36;;;;;;;14.80;3.58;;;;;;;9.08;100.00;102096.81;5282784;28;20602;-75
2023/02/02 05:12:07;;;;;;;14.73;3.67;;;;;;;9.15;100.00;102108.59;5297190;28;20050;-75
2023/02/02 05:14:39;;;;;;;17.02;4.07;;;;;;;9.16;100.00;102117.28;5300724;28;20461;-75
2023/02/02 05:17:10;;;;;;;15.68;3.22;;;;;;;9.13;100.00;102122.69;5300635;28;20075;-75
2023/02/02 05:19:41;;;;;;;14.82;4.03;;;;;;;9.08;100.00;102128.19;5297667;28;20493;-75
2023/02/02 05:22:13;;;;;;;12.65;3.42;;;;;;;9.14;100.00;102137.47;5300526;28;20027;-75
2023/02/02 05:24:44;;;;;;;13.23;3.08;;;;;;;9.12;100.00;102131.47;5300036;28;20034;-75
2023/02/02 05:27:15;;;;;;;17.17;3.75;;;;;;;9.16;100.00;102136.44;5280779;28;20028;-75
2023/02/02 05:29:47;;;;;;;15.57;3.65;;;;;;;9.17;100.00;102134.69;5299555;28;20040;-77
2023/02/02 05:32:18;;;;;;;15.63;3.40;;;;;;;9.20;100.00;102134.47;5298709;28;20028;-76
2023/02/02 05:34:50;;;;;;;14.40;3.83;;;;;;;9.18;100.00;102138.97;5298983;28;20028;-77
2023/02/02 05:37:21;;;;;;;11.88;3.13;;;;;;;9.22;100.00;102135.25;5300051;28;20077;-75
2023/02/02 05:39:53;;;;;;;15.48;2.95;;;;;;;9.25;100.00;102132.47;5298874;28;20079;-75
2023/02/02 05:42:24;;;;;;;14.82;3.45;;;;;;;9.24;100.00;102138.59;5298797;28;20157;-76
2023/02/02 05:44:55;;;;;;;16.38;4.40;;;;;;;9.21;100.00;102137.03;5299453;28;20028;-77
2023/02/02 05:47:27;;;;;;;11.75;3.33;;;;;;;9.22;100.00;102137.88;5299817;28;20040;-76
2023/02/02 05:49:58;;;;;;;13.80;3.47;;;;;;;9.24;100.00;102141.22;5297616;28;20031;-77
2023/02/02 05:52:33;;;;;;;13.65;3.67;;;;;;;9.35;100.00;102144.03;5280283;28;20035;-77
2023/02/02 05:55:05;;;;;;;16.40;3.35;;;;;;;9.30;100.00;102140.03;5298668;28;20028;-74
2023/02/02 05:57:37;;;;;;;17.67;3.63;;;;;;;9.30;100.00;102137.41;5299893;28;20726;-77
2023/02/02 06:00:09;;;;;;;15.00;3.42;;;;;;;9.27;100.00;102143.66;5299098;28;20031;-76
2023/02/02 06:02:40;;;;;;;18.88;3.78;;;;;;;9.29;100.00;102151.44;5299537;28;20020;-77
2023/02/02 06:05:12;;;;;;;15.48;3.42;;;;;;;9.30;100.00;102145.25;5299169;28;20035;-76
2023/02/02 06:07:43;;;;;;;15.18;3.65;;;;;;;9.27;100.00;102141.03;5298708;28;20024;-75
2023/02/02 06:10:15;;;;;;;14.77;3.83;;;;;;;9.21;100.00;102139.63;5298946;28;20516;-77
2023/02/02 06:12:53;;;;;;;16.02;3.90;;;;;;;9.35;100.00;102145.81;5299802;28;20435;-76
2023/02/02 06:15:26;;;;;;;17.65;2.88;;;;;;;9.23;100.00;102132.53;5294970;23;20054;-73
2023/02/02 06:17:57;;;;;;;11.52;3.70;;;;;;;9.29;100.00;102140.97;5304314;28;20027;-73
2023/02/02 06:20:28;;;;;;;11.65;3.63;;;;;;;9.23;100.00;102135.16;5286660;28;20046;-73
2023/02/02 06:23:00;;;;;;;15.82;3.65;;;;;;;9.26;100.00;102140.19;5284900;28;20472;-71
2023/02/02 06:25:32;;;;;;;11.15;3.13;;;;;;;9.26;100.00;102149.81;5280504;28;20110;-71
2023/02/02 06:28:03;;;;;;;11.55;3.05;;;;;;;9.23;100.00;102152.63;5285532;28;20031;-71
2023/02/02 06:30:34;;;;;;;15.27;4.22;;;;;;;9.17;100.00;102150.38;5283605;28;20028;-72
2023/02/02 06:33:06;;;;;;;16.42;3.53;;;;;;;9.19;100.00;102158.94;5283470;28;20020;-71
2023/02/02 06:35:37;;;;;;;22.60;3.95;;;;;;;9.17;100.00;102160.84;5279456;28;20046;-71
2023/02/02 06:38:10;;;;;;;17.27;3.65;;;;;;;9.09;100.00;102158.66;5284447;28;20024;-71
2023/02/02 06:40:41;;;;;;;15.83;3.53;;;;;;;9.19;100.00;102161.56;5284532;28;20130;-72
2023/02/02 06:43:14;;;;;;;17.95;4.15;;;;;;;9.16;100.00;102159.13;5286937;28;20106;-71
2023/02/02 06:45:45;;;;;;;15.15;3.60;;;;;;;9.10;100.00;102155.09;5285428;28;20021;-72
2023/02/02 06:48:16;;;;;;;18.85;3.47;;;;;;;9.17;100.00;102173.91;5280651;28;20098;-73
2023/02/02 06:50:48;;;;;;;15.77;4.07;;;;;;;9.11;100.00;102171.63;5281152;28;20052;-72
2023/02/02 06:53:21;;;;;;;11.73;3.10;;;;;;;9.12;100.00;102181.16;5281682;28;20623;-71
2023/02/02 06:56:01;;;;;;;13.73;3.13;;;;;;;9.17;100.00;102186.97;5272729;28;20028;-72
2023/02/02 06:58:33;;;;;;;16.70;3.35;;;;;;;9.13;100.00;102188.06;5282856;28;20077;-71
2023/02/02 07:01:10;;;;;;;13.60;3.58;;;;;;;9.17;100.00;102184.38;5282732;28;20028;-71
2023/02/02 07:03:41;;;;;;;10.38;2.85;;;;;;;9.19;100.00;102192.94;5279369;28;20035;-71
2023/02/02 07:06:14;;;;;;;9.23;2.88;;;;;;;9.18;100.00;102180.81;5280572;28;20050;-72
2023/02/02 07:08:46;;;;;;;16.20;3.27;;;;;;;9.23;100.00;102190.06;5259283;28;20709;-71
2023/02/02 07:11:18;;;;;;;13.63;3.72;;;;;;;9.14;100.00;102181.91;5278464;28;20422;-72
2023/02/02 07:13:49;;;;;;;11.73;3.22;;;;;;;9.16;100.00;102199.19;5285645;28;20020;-71
2023/02/02 07:16:20;;;;;;;15.02;3.60;;;;;;;9.19;100.00;102190.34;5281143;28;20030;-71
2023/02/02 07:18:52;;;;;;;11.60;3.13;;;;;;;9.17;100.00;102195.66;5282286;28;20103;-71
2023/02/02 07:21:28;;;;;;;13.98;4.10;;;;;;;9.27;100.00;102201.19;5280413;28;20077;-71
2023/02/02 07:24:00;;;;;;;15.20;3.50;;;;;;;9.25;100.00;102180.38;5277331;28;20419;-71
2023/02/02 07:26:34;;;;;;;14.63;3.20;;;;;;;9.34;100.00;102193.84;5287840;28;20060;-71
2023/02/02 07:29:13;;;;;;;17.50;3.65;;;;;;;9.14;100.00;102179.31;5283345;27;20909;-74
2023/02/02 07:31:44;;;;;;;13.90;3.93;;;;;;;9.17;100.00;102193.03;5285481;28;20063;-74
2023/02/02 07:34:15;;;;;;;11.88;3.13;;;;;;;9.17;100.00;102182.59;5281795;28;20487;-73
2023/02/02 07:36:47;;;;;;;15.35;3.67;;;;;;;9.14;100.00;102187.16;5283552;28;20032;-74
2023/02/02 07:39:18;;;;;;;20.23;3.75;;;;;;;9.09;100.00;102194.38;5284551;28;20022;-73
2023/02/02 07:41:49;;;;;;;12.50;3.33;;;;;;;9.05;100.00;102198.13;5276377;28;20065;-72
2023/02/02 07:44:20;;;;;;;12.30;2.95;;;;;;;9.09;100.00;102194.38;5281515;28;20473;-72
2023/02/02 07:46:52;;;;;;;13.50;3.90;;;;;;;9.07;100.00;102185.81;5281767;28;20024;-72
2023/02/02 07:49:23;;;;;;;14.50;3.75;;;;;;;9.04;100.00;102201.66;5284313;28;20066;-72
2023/02/02 07:51:54;;;;;;;14.02;3.40;;;;;;;9.08;100.00;102201.41;5282009;28;20068;-72
2023/02/02 07:54:26;;;;;;;14.32;3.47;;;;;;;8.99;100.00;102189.69;5283669;28;20047;-72
2023/02/02 07:56:59;;;;;;;17.17;4.03;;;;;;;9.08;100.00;102208.41;5288883;28;20024;-72
2023/02/02 07:59:31;;;;;;;15.45;3.60;;;;;;;9.06;100.00;102210.28;5322802;28;20025;-72
2023/02/02 08:02:02;;;;;;;15.27;3.03;;;;;;;9.02;100.00;102199.16;5324317;27;20019;-72
2023/02/02 08:04:33;;;;;;;20.58;4.55;;;;;;;9.00;100.00;102199.22;5325871;28;20027;-73
2023/02/02 08:07:04;;;;;;;15.60;3.72;;;;;;;9.09;100.00;102207.47;5324213;28;20080;-72
2023/02/02 08:09:37;;;;;;;12.05;3.08;;;;;;;9.11;100.00;102216.06;5324937;27;20028;-72
2023/02/02 08:12:08;;;;;;;11.27;2.83;;;;;;;9.17;100.00;102220.97;5323636;27;20384;-72
2023/02/02 08:14:39;;;;;;;12.65;2.97;;;;;;;9.14;100.00;102229.81;5325395;27;20270;-72
2023/02/02 08:17:11;;;;;;;13.38;2.95;;;;;;;9.15;100.00;102222.81;5324888;28;20019;-73
2023/02/02 08:19:42;;;;;;;12.55;3.05;;;;;;;9.14;100.00;102228.97;5325025;27;20659;-73
2023/02/02 08:22:13;;;;;;;16.50;3.53;;;;;;;9.14;100.00;102221.97;5325871;28;20043;-73
2023/02/02 08:24:45;;;;;;;12.85;3.20;;;;;;;9.15;100.00;102235.88;5323661;28;20627;-73
2023/02/02 08:27:16;;;;;;;14.18;3.45;;;;;;;9.22;100.00;102239.84;5324324;27;20048;-72
2023/02/02 08:29:47;;;;;;;15.27;3.78;;;;;;;9.22;100.00;102230.22;5324748;27;20055;-73
2023/02/02 08:32:18;;;;;;;13.80;3.47;;;;;;;9.20;100.00;102239.06;5324270;28;20023;-73
2023/02/02 08:34:52;;;;;;;15.02;3.35;;;;;;;9.17;100.00;102236.66;5322632;28;20028;-72
2023/02/02 08:37:24;;;;;;;18.25;2.83;;;;;;;9.12;100.00;102233.44;5325213;27;20027;-73
2023/02/02 08:39:55;;;;;;;11.32;3.60;;;;;;;9.20;100.00;102241.69;5311093;28;20073;-72
2023/02/02 08:42:26;;;;;;;11.85;3.20;;;;;;;9.18;100.00;102251.41;5285119;28;20020;-73
2023/02/02 08:44:58;;;;;;;11.43;2.92;;;;;;;9.18;100.00;102252.25;5311735;28;20081;-73
2023/02/02 08:47:29;;;;;;;14.60;3.58;;;;;;;9.20;100.00;102260.81;5310362;28;20018;-73
2023/02/02 08:50:00;;;;;;;12.85;3.30;;;;;;;9.18;100.00;102261.88;5309746;28;20040;-73
2023/02/02 08:52:31;;;;;;;12.27;3.40;;;;;;;9.26;100.00;102272.72;5310564;27;20024;-73
2023/02/02 08:55:03;;;;;;;13.70;3.08;;;;;;;9.26;100.00;102273.56;5309210;28;20016;-72
2023/02/02 08:57:35;;;;;;;12.05;2.63;;;;;;;9.26;100.00;102283.19;5311674;28;20020;-73
2023/02/02 09:00:07;;;;;;;18.58;3.50;;;;;;;9.24;100.00;102279.81;5309312;28;20069;-73
2023/02/02 09:02:38;;;;;;;16.20;3.40;;;;;;;9.35;100.00;102289.66;5309748;27;20476;-73
2023/02/02 09:05:09;;;;;;;13.73;3.30;;;;;;;9.39;100.00;102299.88;5307268;28;20360;-72
2023/02/02 09:07:40;;;;;;;11.65;3.08;;;;;;;9.33;100.00;102295.00;5310679;27;20379;-72
2023/02/02 09:10:12;;;;;;;13.27;2.97;;;;;;;9.36;100.00;102307.91;5307652;28;20550;-73
2023/02/02 09:12:43;;;;;;;13.93;3.88;;;;;;;9.40;100.00;102313.81;5310464;28;20115;-73
2023/02/02 09:15:14;;;;;;;16.58;2.88;;;;;;;9.38;100.00;102319.13;5309353;28;20023;-73
2023/02/02 09:17:45;;;;;;;11.82;2.60;;;;;;;9.35;100.00;102318.44;5308070;28;20024;-73
2023/02/02 09:20:17;;;;;;;11.43;2.97;;;;;;;9.39;100.00;102328.63;5310047;28;20035;-73
2023/02/02 09:22:48;;;;;;;13.10;3.05;;;;;;;9.40;100.00;102316.44;5308881;28;20081;-73
2023/02/02 09:25:20;;;;;;;13.50;2.90;;;;;;;9.43;100.00;102314.47;5312070;27;20067;-73
2023/02/02 09:27:51;;;;;;;16.63;3.28;;;;;;;9.51;100.00;102321.91;5309448;28;20056;-73
2023/02/02 09:30:22;;;;;;;12.15;2.72;;;;;;;9.55;100.00;102330.41;5306963;27;20032;-73
2023/02/02 09:32:53;;;;;;;13.82;3.58;;;;;;;9.57;100.00;102331.16;5308086;28;20019;-72
2023/02/02 09:35:25;;;;;;;12.32;2.90;;;;;;;9.56;100.00;102332.09;5309593;28;20020;-73
2023/02/02 09:37:56;;;;;;;17.08;4.15;;;;;;;9.57;100.00;102336.38;5309537;28;20024;-73
2023/02/02 09:40:31;;;;;;;8.43;2.38;;;;;;;9.69;100.00;102341.75;5309975;28;20496;-72
2023/02/02 09:43:08;;;;;;;12.93;3.50;;;;;;;9.72;100.00;102343.38;5307992;28;20044;-72
2023/02/02 09:45:50;;;;;;;15.77;2.97;;;;;;;9.77;100.00;102343.09;5307490;28;20039;-73
2023/02/02 09:48:32;;;;;;;8.65;2.08;;;;;;;9.80;100.00;102349.00;5308023;27;20027;-72
2023/02/02 09:51:12;;;;;;;11.68;2.85;;;;;;;9.77;100.00;102348.34;5308506;28;20028;-73
2023/02/02 09:53:52;;;;;;;15.18;2.47;;;;;;;9.89;100.00;102356.34;5309701;28;20417;-73
2023/02/02 09:56:29;;;;;;;12.25;2.75;;;;;;;9.84;100.00;102368.84;5309792;28;20038;-72
2023/02/02 09:59:02;;;;;;;11.23;2.50;;;;;;;9.81;100.00;102371.66;5307132;27;20016;-72
2023/02/02 10:01:36;;;;;;;11.80;2.40;;;;;;;9.86;100.00;102382.69;5282808;28;20020;-73
2023/02/02 10:04:17;;;;;;;13.48;3.00;;;;;;;9.76;100.00;102378.91;5309331;28;20027;-73
2023/02/02 10:06:55;;;;;;;12.40;2.58;;;;;;;9.88;100.00;102383.44;5308338;28;20493;-73
2023/02/02 10:09:46;;;;;;;10.45;2.40;;;;;;;9.95;100.00;102379.53;5310108;28;20039;-73
2023/02/02 10:12:45;;;;;;;13.85;3.53;;;;;;;9.96;100.00;102376.00;5306561;27;20081;-73
2023/02/02 10:15:43;;;;;;;10.68;1.90;;;;;;;10.01;100.00;102364.41;5307415;28;20058;-73
2023/02/02 10:18:23;;;;;;;12.63;3.55;;;;;;;9.96;100.00;102355.06;5307742;28;20014;-72
2023/02/02 10:21:01;;;;;;;9.10;2.60;;;;;;;9.90;100.00;102359.78;5306800;28;20403;-73
2023/02/02 10:23:39;;;;;;;12.35;2.45;;;;;;;9.89;100.00;102353.72;5283831;28;20024;-73
2023/02/02 10:26:18;;;;;;;10.25;2.70;;;;;;;9.97;100.00;102367.22;5307370;28;20034;-72
2023/02/02 10:29:01;;;;;;;10.60;3.05;;;;;;;9.87;100.00;102370.44;5308995;28;20032;-73
2023/02/02 10:31:55;;;;;;;10.98;3.20;;;;;;;10.07;100.00;102377.13;5308773;28;20043;-73
2023/02/02 10:34:32;;;;;;;;;;;;;;;10.53;100.00;102364.84;5308796;28;20028;-73
2023/02/02 10:37:29;;;;;;;11.23;2.65;;;;;;;10.15;100.00;102365.31;5309126;28;20359;-73
2023/02/02 10:40:17;;;;;;;13.63;2.83;;;;;;;10.32;100.00;102380.03;5289485;28;20036;-72
2023/02/02 10:46:10;;;;;;;15.00;2.70;;;;;;;10.22;100.00;102369.22;5309154;28;20035;-73
2023/02/02 10:48:46;;;;;;;14.38;2.80;;;;;;;10.19;100.00;102372.03;5307986;28;20434;-73
2023/02/02 10:51:22;;;;;;;15.88;3.20;;;;;;;10.14;100.00;102373.22;5308144;28;20036;-73
2023/02/02 10:53:57;;;;;;;12.20;3.60;;;;;;;10.11;100.00;102382.09;5308005;27;20039;-72
2023/02/02 10:56:44;;;;;;;9.55;2.80;;;;;;;10.33;100.00;102400.06;5308389;28;20085;-73
2023/02/02 10:59:23;;;;;;;12.75;3.17;;;;;;;10.28;100.00;102399.50;5308404;28;20024;-73
2023/02/02 11:01:54;;;;;;;12.68;2.67;;;;;;;10.17;100.00;102396.63;5307362;27;20016;-73
2023/02/02 11:07:19;;;;;;;14.07;3.25;;;;;;;10.15;100.00;102403.72;5306991;28;20059;-73
2023/02/02 11:09:52;;;;;;;11.50;3.20;;;;;;;10.19;100.00;102384.28;5283723;28;20031;-72
2023/02/02 11:12:31;;;;;;;12.35;3.35;;;;;;;10.21;100.00;102406.00;5309091;28;20035;-73
2023/02/02 11:15:07;;;;;;;12.98;2.80;;;;;;;10.21;100.00;102387.66;5306961;28;20036;-73
2023/02/02 11:17:38;;;;;;;12.00;3.22;;;;;;;10.25;100.00;102394.44;5309196;28;20027;-72
2023/02/02 11:20:33;;;;;;;10.93;2.55;;;;;;;10.43;100.00;102403.84;5308886;28;20015;-73
2023/02/02 11:23:06;;;;;;;13.43;3.03;;;;;;;10.24;100.00;102395.34;5308093;28;20391;-73
2023/02/02 11:25:38;;;;;;;14.32;2.97;;;;;;;10.25;100.00;102391.81;5306367;28;20016;-73
2023/02/02 11:28:19;;;;;;;18.25;3.53;;;;;;;10.39;100.00;102389.22;5283005;28;20040;-73
2023/02/02 11:30:52;;;;;;;10.30;3.03;;;;;;;10.15;100.00;102374.91;5284097;28;20080;-73
2023/02/02 11:33:34;;;;;;;14.57;3.88;;;;;;;10.28;100.00;102381.16;5308097;28;20028;-74
2023/02/02 11:36:20;;;;;;;10.68;2.72;;;;;;;10.37;100.00;102390.25;5308550;28;20028;-73
2023/02/02 11:39:14;;;;;;;13.05;3.55;;;;;;;10.41;100.00;102400.44;5306190;28;20016;-73
2023/02/02 11:41:46;;;;;;;12.50;3.22;;;;;;;10.22;100.00;102389.34;5305575;28;20035;-73
2023/02/02 11:44:25;;;;;;;13.32;3.67;;;;;;;10.34;100.00;102391.28;5306228;28;20027;-73
2023/02/02 11:46:57;;;;;;;13.20;3.15;;;;;;;10.23;100.00;102393.66;5306539;28;20055;-72
2023/02/02 11:49:40;;;;;;;15.77;3.67;;;;;;;10.34;100.00;102393.03;5309194;28;20031;-72
2023/02/02 11:52:21;;;;;;;10.00;2.65;;;;;;;10.50;100.00;102385.13;5307465;28;20065;-72
2023/02/02 11:54:59;;;;;;;12.52;2.72;;;;;;;10.44;100.00;102383.72;5306014;28;20027;-72
2023/02/02 11:57:31;;;;;;;14.23;3.28;;;;;;;10.36;100.00;102385.94;5309217;28;20099;-72
2023/02/02 12:00:14;;;;;;;10.38;2.95;;;;;;;10.43;100.00;102380.25;5305883;28;20103;-72
2023/02/02 12:02:48;;;;;;;12.73;2.60;;;;;;;10.43;100.00;102384.66;5306572;28;20053;-72
2023/02/02 12:05:19;;;;;;;11.55;2.95;;;;;;;10.39;100.00;102394.47;5307099;28;20036;-72